createdAt,value
2018-07-14T00:03:01.326Z,16.3
2018-07-14T00:19:01.391Z,16.3
2018-07-14T00:29:01.426Z,16.2
2018-07-14T00:39:01.390Z,16.3
2018-07-14T00:44:01.267Z,16.2
2018-07-14T00:59:01.325Z,16.1
2018-07-14T01:04:01.249Z,16.0
2018-07-14T01:19:01.389Z,16.0
2018-07-14T01:34:01.434Z,16.1
2018-07-14T01:44:01.255Z,16.2
2018-07-14T01:59:01.248Z,16.2
2018-07-14T02:14:01.258Z,16.2
2018-07-14T02:29:01.257Z,16.2
2018-07-14T02:44:06.293Z,16.2
2018-07-14T02:49:01.294Z,16.3
2018-07-14T03:04:01.398Z,16.3
2018-07-14T03:19:01.430Z,16.3
2018-07-14T03:34:01.438Z,16.3
2018-07-14T03:49:01.472Z,16.3
2018-07-14T04:04:01.368Z,16.3
2018-07-14T04:19:01.384Z,16.3
2018-07-14T04:24:01.402Z,16.4
2018-07-14T04:39:01.400Z,16.4
2018-07-14T04:49:01.405Z,16.5
2018-07-14T05:04:01.415Z,16.6
2018-07-14T05:14:01.253Z,16.7
2018-07-14T05:24:01.267Z,16.8
2018-07-14T06:00:01.102Z,17.4
2018-07-14T06:05:00.873Z,17.5
2018-07-14T06:10:01.015Z,17.6
2018-07-14T06:15:01.021Z,17.6
2018-07-14T06:20:00.938Z,17.7
2018-07-14T06:30:00.888Z,17.7
2018-07-14T06:35:00.876Z,17.6
2018-07-14T06:40:00.854Z,17.5
2018-07-14T06:45:00.876Z,17.4
2018-07-14T06:50:00.897Z,17.2
2018-07-14T06:55:00.886Z,17.1
2018-07-14T07:00:00.926Z,17.0
2018-07-14T07:15:00.915Z,17.0
2018-07-14T07:25:00.918Z,16.9
2018-07-14T07:30:00.905Z,16.9
2018-07-14T07:45:00.896Z,16.9
2018-07-14T08:00:01.166Z,16.9
2018-07-14T08:15:01.115Z,16.9
2018-07-14T08:30:01.270Z,16.9
2018-07-14T08:45:01.126Z,16.9
2018-07-14T08:50:00.978Z,17.1
2018-07-14T08:55:00.924Z,17.4
2018-07-14T09:00:01.110Z,17.6
2018-07-14T09:05:00.926Z,17.9
2018-07-14T09:10:00.923Z,18.1
2018-07-14T09:15:01.162Z,18.0
2018-07-14T09:25:01.024Z,17.9
2018-07-14T09:30:01.217Z,17.8
2018-07-14T09:35:00.967Z,17.7
2018-07-14T09:40:00.992Z,17.6
2018-07-14T09:45:01.115Z,17.6
2018-07-14T09:50:01.001Z,17.9
2018-07-14T09:55:00.947Z,18.1
2018-07-14T10:00:01.092Z,18.5
2018-07-14T10:05:00.972Z,18.8
2018-07-14T10:10:01.089Z,19.0
2018-07-14T10:15:01.426Z,18.9
2018-07-14T10:20:01.134Z,18.8
2018-07-14T10:25:00.973Z,18.6
2018-07-14T10:30:01.191Z,18.4
2018-07-14T10:35:01.106Z,18.3
2018-07-14T10:40:01.086Z,18.2
2018-07-14T10:45:01.112Z,18.2
2018-07-14T10:50:01.052Z,18.4
2018-07-14T10:55:01.016Z,18.7
2018-07-14T11:00:01.232Z,19.0
2018-07-14T11:05:00.975Z,19.1
2018-07-14T11:10:01.026Z,19.3
2018-07-14T11:15:01.200Z,19.3
2018-07-14T11:30:01.316Z,19.4
2018-07-14T11:40:01.052Z,19.5
2018-07-14T11:45:01.131Z,19.6
2018-07-14T11:50:01.051Z,19.7
2018-07-14T11:55:00.981Z,19.9
2018-07-14T12:00:01.327Z,20.1
2018-07-14T12:05:00.994Z,20.2
2018-07-14T12:10:01.086Z,20.4
2018-07-14T12:15:01.159Z,20.5
2018-07-14T12:20:01.025Z,20.3
2018-07-14T12:25:01.015Z,20.1
2018-07-14T12:30:01.274Z,19.8
2018-07-14T12:35:01.021Z,19.6
2018-07-14T12:40:01.107Z,19.3
2018-07-14T12:45:01.135Z,19.3
2018-07-14T12:55:01.058Z,19.4
2018-07-14T13:00:01.305Z,19.8
2018-07-14T13:05:01.002Z,20.1
2018-07-14T13:10:01.149Z,20.6
2018-07-14T13:15:01.121Z,21.0
2018-07-14T13:20:01.014Z,21.5
2018-07-14T13:25:01.011Z,21.7
2018-07-14T13:30:01.396Z,22.0
2018-07-14T13:35:01.020Z,22.1
2018-07-14T13:40:01.098Z,22.0
2018-07-14T13:45:01.176Z,21.9
2018-07-14T13:50:01.100Z,21.7
2018-07-14T13:55:01.023Z,21.5
2018-07-14T14:00:01.159Z,21.2
2018-07-14T14:05:01.020Z,21.1
2018-07-14T14:10:01.093Z,21.0
2018-07-14T14:15:01.180Z,20.9
2018-07-14T14:25:01.048Z,21.0
2018-07-14T14:30:01.264Z,21.0
2018-07-14T14:45:01.182Z,20.9
2018-07-14T15:00:01.255Z,20.9
2018-07-14T15:05:01.047Z,21.0
2018-07-14T15:10:01.104Z,21.1
2018-07-14T15:15:01.186Z,21.2
2018-07-14T15:30:01.328Z,21.5
2018-07-14T15:35:01.060Z,21.8
2018-07-14T15:45:01.220Z,21.9
2018-07-14T15:55:01.135Z,21.6
2018-07-14T16:00:01.271Z,21.3
2018-07-14T16:05:01.072Z,21.2
2018-07-14T16:15:01.365Z,21.2
2018-07-14T16:20:01.144Z,21.1
2018-07-14T16:30:01.085Z,21.0
2018-07-14T16:35:06.114Z,20.8
2018-07-14T16:40:06.297Z,20.5
2018-07-14T16:45:06.272Z,20.3
2018-07-14T16:50:01.299Z,20.2
2018-07-14T16:55:01.292Z,20.1
2018-07-14T17:00:01.356Z,20.1
2018-07-14T17:15:01.369Z,20.1
2018-07-14T17:30:01.101Z,20.1
2018-07-14T17:35:01.090Z,20.2
2018-07-14T17:40:01.098Z,20.1
2018-07-14T17:45:01.098Z,20.1
2018-07-14T17:50:01.106Z,20.0
2018-07-14T17:55:01.093Z,19.9
2018-07-14T18:00:01.438Z,19.7
2018-07-14T18:05:01.097Z,19.6
2018-07-14T18:10:01.109Z,19.4
2018-07-14T18:15:01.100Z,19.3
2018-07-14T18:20:01.110Z,19.1
2018-07-14T18:25:01.099Z,19.0
2018-07-14T18:30:01.121Z,18.8
2018-07-14T18:40:01.074Z,18.7
2018-07-14T18:45:01.100Z,18.6
2018-07-14T18:50:01.091Z,18.5
2018-07-14T18:55:01.071Z,18.4
2018-07-14T19:00:01.116Z,18.3
2018-07-14T19:05:01.106Z,18.2
2018-07-14T19:10:01.116Z,18.1
2018-07-14T19:15:01.258Z,18.0
2018-07-14T19:20:01.130Z,17.8
2018-07-14T19:25:01.128Z,17.7
2018-07-14T19:30:01.103Z,17.5
2018-07-14T19:35:01.208Z,17.4
2018-07-14T19:40:01.114Z,17.2
2018-07-14T19:45:01.137Z,17.0
2018-07-14T19:50:01.143Z,16.8
2018-07-14T19:55:01.100Z,16.7
2018-07-14T20:00:01.150Z,16.4
2018-07-14T20:05:01.131Z,16.3
2018-07-14T20:10:01.143Z,16.1
2018-07-14T20:15:01.152Z,16.1
2018-07-14T20:20:01.134Z,16.0
2018-07-14T20:25:01.150Z,15.9
2018-07-14T20:30:01.306Z,15.8
2018-07-14T20:40:01.110Z,15.6
2018-07-14T20:45:01.141Z,15.5
2018-07-14T20:50:01.208Z,15.4
2018-07-14T20:55:01.120Z,15.2
2018-07-14T21:00:01.151Z,15.1
2018-07-14T21:05:01.159Z,15.0
2018-07-14T21:10:01.150Z,14.8
2018-07-14T21:15:01.094Z,14.8
2018-07-14T21:20:01.154Z,14.7
2018-07-14T21:25:01.160Z,14.6
2018-07-14T21:30:01.167Z,14.5
2018-07-14T21:40:01.306Z,14.4
2018-07-14T21:45:01.169Z,14.3
2018-07-14T21:55:01.229Z,14.2
2018-07-14T22:00:01.248Z,14.2
2018-07-14T22:05:01.234Z,14.1
2018-07-14T22:15:01.364Z,14.0
2018-07-14T22:30:01.234Z,14.0
2018-07-14T22:35:01.235Z,13.9
2018-07-14T22:45:01.294Z,13.9
2018-07-14T22:50:01.254Z,13.8
2018-07-14T23:00:01.275Z,13.7
2018-07-14T23:05:01.177Z,13.6
2018-07-14T23:10:01.258Z,13.5
2018-07-14T23:15:01.186Z,13.4
2018-07-14T23:20:01.322Z,13.3
2018-07-14T23:25:02.754Z,13.2
2018-07-14T23:30:01.304Z,13.1
2018-07-14T23:40:01.308Z,13.0
2018-07-14T23:45:01.196Z,13.0
2018-07-14T23:50:01.275Z,12.9
2018-07-14T23:55:01.201Z,12.8
